createdAt,value
2023-04-12T00:01:50.787Z,2.10
2023-04-12T00:04:17.761Z,1.80
2023-04-12T00:06:48.572Z,1.90
2023-04-12T00:09:18.593Z,1.67
2023-04-12T00:11:45.467Z,1.80
2023-04-12T00:14:12.158Z,1.67
2023-04-12T00:16:39.056Z,1.70
2023-04-12T00:19:06.985Z,1.63
2023-04-12T00:21:33.797Z,1.60
2023-04-12T00:24:01.222Z,1.60
2023-04-12T00:26:28.255Z,1.60
2023-04-12T00:28:54.992Z,1.50
2023-04-12T00:31:21.645Z,1.30
2023-04-12T00:33:48.403Z,1.33
2023-04-12T00:36:15.840Z,1.40
2023-04-12T00:38:42.714Z,1.60
2023-04-12T00:41:09.369Z,1.50
2023-04-12T00:43:36.040Z,1.63
2023-04-12T00:46:03.053Z,1.53
2023-04-12T00:48:30.310Z,1.40
2023-04-12T00:50:57.672Z,1.30
2023-04-12T00:53:24.463Z,1.57
2023-04-12T00:55:52.427Z,1.40
2023-04-12T00:58:21.465Z,1.30
2023-04-12T01:00:53.039Z,1.10
2023-04-12T01:03:23.686Z,1.13
2023-04-12T01:06:00.472Z,1.00
2023-04-12T01:08:42.239Z,1.40
2023-04-12T01:11:37.368Z,1.20
2023-04-12T01:14:07.416Z,1.17
2023-04-12T01:16:55.727Z,1.00
2023-04-12T01:19:46.057Z,0.90
2023-04-12T01:22:37.678Z,1.10
2023-04-12T01:25:29.437Z,1.00
2023-04-12T01:28:07.686Z,1.10
2023-04-12T01:30:34.673Z,1.10
2023-04-12T01:33:04.343Z,1.33
2023-04-12T01:35:33.901Z,1.17
2023-04-12T01:38:16.988Z,1.30
2023-04-12T01:40:46.321Z,1.10
2023-04-12T01:43:14.448Z,1.30
2023-04-12T01:45:41.826Z,1.30
2023-04-12T01:48:10.387Z,1.30
2023-04-12T01:50:43.873Z,1.10
2023-04-12T01:53:18.846Z,1.00
2023-04-12T01:55:48.817Z,1.27
2023-04-12T01:58:19.746Z,1.20
2023-04-12T02:12:19.995Z,1.13
2023-04-12T02:14:51.848Z,1.00
2023-04-12T02:17:20.011Z,1.37
2023-04-12T02:19:47.415Z,1.20
2023-04-12T02:22:14.182Z,1.00
2023-04-12T02:24:41.486Z,1.10
2023-04-12T02:27:08.309Z,1.23
2023-04-12T02:29:35.003Z,1.27
2023-04-12T02:32:01.716Z,0.90
2023-04-12T02:34:34.070Z,1.10
2023-04-12T02:37:00.805Z,1.10
2023-04-12T02:39:29.211Z,1.10
2023-04-12T02:41:57.015Z,1.17
2023-04-12T02:44:24.251Z,1.10
2023-04-12T02:46:50.930Z,1.10
2023-04-12T02:49:18.027Z,1.00
2023-04-12T02:51:45.136Z,1.03
2023-04-12T02:54:12.907Z,0.90
2023-04-12T02:56:40.261Z,0.87
2023-04-12T02:59:07.636Z,1.20
2023-04-12T03:01:35.191Z,1.27
2023-04-12T03:04:02.662Z,1.00
2023-04-12T03:06:30.269Z,1.00
2023-04-12T03:08:58.309Z,1.00
2023-04-12T03:11:25.111Z,1.10
2023-04-12T03:13:52.653Z,0.90
2023-04-12T03:16:30.121Z,1.10
2023-04-12T03:18:57.768Z,1.10
2023-04-12T03:21:24.544Z,1.20
2023-04-12T03:23:52.774Z,1.40
2023-04-12T03:26:20.537Z,1.13
2023-04-12T03:28:48.227Z,1.30
2023-04-12T03:32:54.004Z,1.20
2023-04-12T03:35:21.300Z,1.20
2023-04-12T03:37:50.554Z,1.43
2023-04-12T03:40:17.780Z,1.30
2023-04-12T03:42:45.152Z,1.30
2023-04-12T03:45:12.384Z,1.30
2023-04-12T03:47:39.045Z,1.40
2023-04-12T03:50:11.555Z,1.40
2023-04-12T03:52:38.891Z,1.40
2023-04-12T03:55:07.479Z,1.60
2023-04-12T03:57:34.841Z,1.20
2023-04-12T04:00:02.447Z,1.23
2023-04-12T04:02:29.762Z,1.37
2023-04-12T04:04:57.018Z,1.50
2023-04-12T04:07:23.846Z,1.50
2023-04-12T04:09:50.937Z,1.47
2023-04-12T04:12:45.724Z,1.40
2023-04-12T04:15:12.793Z,1.30
2023-04-12T04:17:39.524Z,1.43
2023-04-12T04:20:08.340Z,1.57
2023-04-12T04:22:34.982Z,1.40
2023-04-12T04:25:03.060Z,1.30
2023-04-12T04:27:30.636Z,1.57
2023-04-12T04:29:59.479Z,1.30
2023-04-12T04:32:26.174Z,1.17
2023-04-12T04:35:27.271Z,1.20
2023-04-12T04:37:55.257Z,1.20
2023-04-12T04:40:24.559Z,1.30
2023-04-12T04:42:58.002Z,1.50
2023-04-12T04:45:30.640Z,1.10
2023-04-12T04:47:58.179Z,1.17
2023-04-12T04:50:28.195Z,1.10
2023-04-12T04:52:57.324Z,1.30
2023-04-12T04:55:25.704Z,1.40
2023-04-12T04:57:52.966Z,1.30
2023-04-12T05:00:21.568Z,1.30
2023-04-12T05:02:49.215Z,1.20
2023-04-12T05:05:16.513Z,1.10
2023-04-12T05:07:44.121Z,1.33
2023-04-12T05:10:28.236Z,1.40
2023-04-12T05:12:55.558Z,1.27
2023-04-12T05:15:22.725Z,1.40
2023-04-12T05:17:50.243Z,1.40
2023-04-12T05:20:18.490Z,1.30
2023-04-12T05:22:48.299Z,1.10
2023-04-12T05:25:15.566Z,1.23
2023-04-12T05:27:42.834Z,1.40
2023-04-12T05:30:10.208Z,1.17
2023-04-12T05:32:37.437Z,1.30
2023-04-12T05:35:04.662Z,1.37
2023-04-12T05:37:31.740Z,1.07
2023-04-12T05:39:58.967Z,1.40
2023-04-12T05:42:26.074Z,1.30
2023-04-12T05:44:56.524Z,1.20
2023-04-12T05:47:23.746Z,1.30
2023-04-12T05:49:55.467Z,1.53
2023-04-12T05:52:22.692Z,1.47
2023-04-12T05:54:49.974Z,1.60
2023-04-12T05:57:18.118Z,1.20
2023-04-12T05:59:44.732Z,1.20
2023-04-12T06:02:12.172Z,1.30
2023-04-12T06:08:15.816Z,1.60
2023-04-12T06:10:42.957Z,1.43
2023-04-12T06:13:10.226Z,1.17
2023-04-12T06:15:37.451Z,1.37
2023-04-12T06:18:04.785Z,1.00
2023-04-12T06:20:32.116Z,1.10
2023-04-12T06:22:59.374Z,1.10
2023-04-12T06:25:26.630Z,1.10
2023-04-12T06:27:53.843Z,1.20
2023-04-12T06:30:21.202Z,1.17
2023-04-12T06:32:48.417Z,1.20
2023-04-12T06:35:15.670Z,1.20
2023-04-12T06:37:42.947Z,1.00
2023-04-12T06:40:11.686Z,1.10
2023-04-12T06:42:40.520Z,1.20
2023-04-12T06:45:07.845Z,1.10
2023-04-12T06:50:56.891Z,1.20
2023-04-12T06:53:26.811Z,1.10
2023-04-12T06:55:57.308Z,0.90
2023-04-12T06:58:24.642Z,1.00
2023-04-12T07:00:51.946Z,0.90
2023-04-12T07:03:19.300Z,1.10
2023-04-12T07:05:47.409Z,0.80
2023-04-12T07:08:14.374Z,1.10
2023-04-12T07:10:41.370Z,1.17
2023-04-12T07:13:08.547Z,1.00
2023-04-12T07:15:38.732Z,0.90
2023-04-12T07:18:06.048Z,1.00
2023-04-12T07:20:36.425Z,1.10
2023-04-12T07:23:06.110Z,0.93
2023-04-12T07:25:33.221Z,0.90
2023-04-12T07:28:11.133Z,0.90
2023-04-12T07:30:44.856Z,1.10
2023-04-12T07:33:26.218Z,0.97
2023-04-12T07:35:58.168Z,1.10
2023-04-12T07:38:25.423Z,1.00
2023-04-12T07:40:52.915Z,1.03
2023-04-12T07:43:19.653Z,0.87
2023-04-12T07:45:58.879Z,1.17
2023-04-12T07:48:28.926Z,1.03
2023-04-12T07:50:56.453Z,1.10
2023-04-12T07:53:27.517Z,1.10
2023-04-12T07:55:56.500Z,1.00
2023-04-12T07:58:24.515Z,1.20
2023-04-12T08:00:51.636Z,1.00
2023-04-12T08:03:19.159Z,1.20
2023-04-12T08:05:49.513Z,0.90
2023-04-12T08:08:16.750Z,1.10
2023-04-12T08:10:47.233Z,0.80
2023-04-12T08:13:14.463Z,0.90
2023-04-12T08:15:43.519Z,0.93
2023-04-12T08:18:10.802Z,0.97
2023-04-12T08:20:40.476Z,1.10
2023-04-12T08:23:08.055Z,0.87
2023-04-12T08:25:34.816Z,1.10
2023-04-12T08:28:01.470Z,0.90
2023-04-12T08:30:30.849Z,0.90
2023-04-12T08:32:57.597Z,0.90
2023-04-12T08:35:24.418Z,0.80
2023-04-12T08:37:51.397Z,1.20
2023-04-12T08:40:18.484Z,0.90
2023-04-12T08:42:46.423Z,0.93
2023-04-12T08:45:13.853Z,1.33
2023-04-12T08:47:45.145Z,1.17
2023-04-12T08:50:17.216Z,0.90
2023-04-12T08:52:43.912Z,0.80
2023-04-12T08:55:12.979Z,1.00
2023-04-12T08:57:41.419Z,1.00
2023-04-12T09:00:09.240Z,1.10
2023-04-12T09:02:43.356Z,1.00
2023-04-12T09:05:10.338Z,1.00
2023-04-12T09:07:38.420Z,1.10
2023-04-12T09:10:06.015Z,1.00
2023-04-12T09:12:32.966Z,0.90
2023-04-12T09:15:12.386Z,1.00
2023-04-12T09:17:41.779Z,0.90
2023-04-12T09:20:17.662Z,1.00
2023-04-12T09:22:46.366Z,0.90
2023-04-12T09:25:14.232Z,0.97
2023-04-12T09:27:48.231Z,0.90
2023-04-12T09:30:16.659Z,0.90
2023-04-12T09:32:43.755Z,0.73
2023-04-12T09:35:10.789Z,0.90
2023-04-12T09:37:37.534Z,1.00
2023-04-12T09:40:06.617Z,1.03
2023-04-12T09:42:42.861Z,0.90
2023-04-12T09:45:21.629Z,1.00
2023-04-12T09:47:48.404Z,0.90
2023-04-12T09:50:22.997Z,0.90
2023-04-12T09:52:50.208Z,1.03
2023-04-12T09:55:17.805Z,0.90
2023-04-12T09:57:45.468Z,1.00
2023-04-12T10:00:17.360Z,1.17
2023-04-12T10:02:52.686Z,1.00
2023-04-12T10:05:21.914Z,0.90
2023-04-12T10:07:49.722Z,1.00
2023-04-12T10:10:18.142Z,1.00
2023-04-12T10:12:47.036Z,1.00
2023-04-12T10:15:17.233Z,1.00
2023-04-12T10:17:47.045Z,1.13
2023-04-12T10:20:16.857Z,1.00
2023-04-12T10:22:45.885Z,1.20
2023-04-12T10:25:20.613Z,0.90
2023-04-12T10:27:47.958Z,1.00
2023-04-12T10:30:28.257Z,1.07
2023-04-12T10:33:08.334Z,1.00
2023-04-12T10:35:54.988Z,0.97
2023-04-12T10:38:24.964Z,1.00
2023-04-12T10:41:15.074Z,1.10
2023-04-12T10:43:49.003Z,1.00
2023-04-12T10:46:40.818Z,0.97
2023-04-12T10:49:11.816Z,0.90
2023-04-12T10:51:38.736Z,1.10
2023-04-12T10:54:09.128Z,1.00
2023-04-12T10:56:40.136Z,1.00
2023-04-12T10:59:11.255Z,1.10
2023-04-12T11:01:39.451Z,1.00
2023-04-12T11:04:13.833Z,0.90
2023-04-12T11:07:07.653Z,0.90
2023-04-12T11:09:34.400Z,0.87
2023-04-12T11:12:04.382Z,1.10
2023-04-12T11:14:36.039Z,1.10
2023-04-12T11:17:05.727Z,0.90
2023-04-12T11:19:43.922Z,1.20
2023-04-12T11:22:16.299Z,1.03
2023-04-12T11:24:47.154Z,1.10
2023-04-12T11:27:16.283Z,1.10
2023-04-12T11:29:43.769Z,0.80
2023-04-12T11:32:15.070Z,0.97
2023-04-12T11:34:43.825Z,0.80
2023-04-12T11:37:11.090Z,0.77
2023-04-12T11:39:44.638Z,1.20
2023-04-12T11:42:16.438Z,0.80
2023-04-12T11:44:56.290Z,0.70
2023-04-12T11:47:25.711Z,0.90
2023-04-12T11:49:53.346Z,0.90
2023-04-12T11:52:21.769Z,0.83
2023-04-12T11:54:51.637Z,1.20
2023-04-12T11:57:19.381Z,1.17
2023-04-12T11:59:47.640Z,1.00
2023-04-12T12:02:23.455Z,0.90
2023-04-12T12:04:51.500Z,0.90
2023-04-12T12:07:19.721Z,0.63
2023-04-12T12:09:46.988Z,1.17
2023-04-12T12:12:14.311Z,0.80
2023-04-12T12:14:41.262Z,0.70
2023-04-12T12:17:15.614Z,0.77
2023-04-12T12:19:46.279Z,0.70
2023-04-12T12:22:17.934Z,0.73
2023-04-12T12:24:58.305Z,0.63
2023-04-12T12:27:38.479Z,0.70
2023-04-12T12:30:07.653Z,0.90
2023-04-12T12:32:35.526Z,0.90
2023-04-12T12:35:02.829Z,0.90
2023-04-12T12:37:30.901Z,0.70
2023-04-12T12:40:13.429Z,0.70
2023-04-12T12:42:47.109Z,0.50
2023-04-12T12:45:14.684Z,0.70
2023-04-12T12:47:55.059Z,0.50
2023-04-12T12:50:26.942Z,0.70
2023-04-12T12:52:54.743Z,0.93
2023-04-12T12:55:22.551Z,0.80
2023-04-12T12:58:05.954Z,0.60
2023-04-12T13:00:34.077Z,0.70
2023-04-12T13:03:01.131Z,0.67
2023-04-12T13:05:28.362Z,0.83
2023-04-12T13:07:55.001Z,0.60
2023-04-12T13:10:21.680Z,0.60
2023-04-12T13:12:48.388Z,0.70
2023-04-12T13:15:22.385Z,0.67
2023-04-12T13:17:52.539Z,0.70
2023-04-12T13:20:19.402Z,0.70
2023-04-12T13:22:46.108Z,0.60
2023-04-12T13:25:12.960Z,0.60
2023-04-12T13:27:39.676Z,0.80
2023-04-12T13:30:07.068Z,0.80
2023-04-12T13:32:33.938Z,0.70
2023-04-12T13:35:00.635Z,0.70
2023-04-12T13:37:27.613Z,0.50
2023-04-12T13:39:54.274Z,0.60
2023-04-12T13:42:22.459Z,0.80
2023-04-12T13:44:49.301Z,0.70
2023-04-12T13:47:17.807Z,0.60
2023-04-12T13:49:44.729Z,0.57
2023-04-12T13:52:11.931Z,0.60
2023-04-12T13:54:38.774Z,0.80
2023-04-12T13:57:05.932Z,0.60
2023-04-12T13:59:32.632Z,0.80
2023-04-12T14:02:00.485Z,0.60
2023-04-12T14:04:31.799Z,0.70
2023-04-12T14:07:00.103Z,0.70
2023-04-12T14:09:28.432Z,0.70
2023-04-12T14:11:56.594Z,0.80
2023-04-12T14:14:24.068Z,0.80
2023-04-12T14:16:53.397Z,0.67
2023-04-12T14:19:21.309Z,0.70
2023-04-12T14:21:48.714Z,0.77
2023-04-12T14:24:16.779Z,0.70
2023-04-12T14:26:43.692Z,0.70
2023-04-12T14:29:11.156Z,0.73
2023-04-12T14:31:38.420Z,0.77
2023-04-12T14:34:05.996Z,0.57
2023-04-12T14:36:33.512Z,0.70
2023-04-12T14:39:01.589Z,0.80
2023-04-12T14:41:29.409Z,0.70
2023-04-12T14:43:56.651Z,0.90
2023-04-12T14:46:25.502Z,0.70
2023-04-12T14:48:52.308Z,0.73
2023-04-12T14:51:19.517Z,0.60
2023-04-12T14:53:46.626Z,0.70
2023-04-12T14:56:23.789Z,0.70
2023-04-12T14:58:58.188Z,0.60
2023-04-12T15:01:26.114Z,0.70
2023-04-12T15:03:53.586Z,0.60
2023-04-12T15:06:22.504Z,0.70
2023-04-12T15:08:55.024Z,0.50
2023-04-12T15:11:29.952Z,0.67
2023-04-12T15:13:57.205Z,0.67
2023-04-12T15:16:24.184Z,0.60
2023-04-12T15:18:51.745Z,0.70
2023-04-12T15:21:18.753Z,0.60
2023-04-12T15:23:45.483Z,0.70
2023-04-12T15:26:14.027Z,0.70
2023-04-12T15:28:42.629Z,0.60
2023-04-12T15:31:11.821Z,0.60
2023-04-12T15:33:38.562Z,0.60
2023-04-12T15:36:05.631Z,0.50
2023-04-12T15:38:32.558Z,0.50
2023-04-12T15:41:01.258Z,0.40
2023-04-12T15:43:28.746Z,0.47
2023-04-12T15:45:56.267Z,0.40
2023-04-12T15:48:24.193Z,0.40
2023-04-12T15:50:52.126Z,0.30
2023-04-12T15:53:21.411Z,0.40
2023-04-12T15:55:48.620Z,0.40
2023-04-12T15:58:15.549Z,0.50
2023-04-12T16:00:42.559Z,0.30
2023-04-12T16:03:09.662Z,0.40
2023-04-12T16:05:36.772Z,0.33
2023-04-12T16:08:03.856Z,0.40
2023-04-12T16:10:30.602Z,0.40
2023-04-12T16:12:57.852Z,0.60
2023-04-12T16:15:24.617Z,0.30
2023-04-12T16:17:55.589Z,0.60
2023-04-12T16:20:23.117Z,0.30
2023-04-12T16:22:54.349Z,0.47
2023-04-12T16:25:22.607Z,0.50
2023-04-12T16:27:49.725Z,0.40
2023-04-12T16:30:17.532Z,0.40
2023-04-12T16:32:47.811Z,0.40
2023-04-12T16:35:15.700Z,0.30
2023-04-12T16:37:43.117Z,0.30
2023-04-12T16:40:12.446Z,0.50
2023-04-12T16:42:40.847Z,0.43
2023-04-12T16:45:08.896Z,0.30
2023-04-12T16:47:36.901Z,0.60
2023-04-12T16:50:04.315Z,0.50
2023-04-12T16:52:32.057Z,0.30
2023-04-12T16:54:58.725Z,0.30
2023-04-12T16:57:25.454Z,0.33
2023-04-12T16:59:52.070Z,0.47
2023-04-12T17:02:19.150Z,0.30
2023-04-12T17:04:46.180Z,0.60
2023-04-12T17:07:12.935Z,0.37
2023-04-12T17:09:39.592Z,0.50
2023-04-12T17:12:07.075Z,0.40
2023-04-12T17:14:33.806Z,0.33
2023-04-12T17:17:00.539Z,0.47
2023-04-12T17:19:27.208Z,0.60
2023-04-12T17:21:54.592Z,0.50
2023-04-12T17:24:21.283Z,0.37
2023-04-12T17:26:48.452Z,0.50
2023-04-12T17:29:15.375Z,0.50
2023-04-12T17:31:42.753Z,0.40
2023-04-12T17:34:09.602Z,0.40
2023-04-12T17:36:36.412Z,0.30
2023-04-12T17:39:04.806Z,0.40
2023-04-12T17:41:31.503Z,0.50
2023-04-12T17:43:59.308Z,0.50
2023-04-12T17:46:26.469Z,0.50
2023-04-12T17:48:53.299Z,0.40
2023-04-12T17:51:20.002Z,0.30
2023-04-12T17:53:46.794Z,0.20
2023-04-12T17:56:13.892Z,0.50
2023-04-12T17:58:40.637Z,0.57
2023-04-12T18:01:07.384Z,0.40
2023-04-12T18:03:34.377Z,0.30
2023-04-12T18:06:04.032Z,0.40
2023-04-12T18:08:30.845Z,0.40
2023-04-12T18:10:57.957Z,0.50
2023-04-12T18:13:24.737Z,0.43
2023-04-12T18:15:51.507Z,0.50
2023-04-12T18:18:18.204Z,0.40
2023-04-12T18:20:44.852Z,0.50
2023-04-12T18:23:11.831Z,0.40
2023-04-12T18:25:38.773Z,0.50
2023-04-12T18:28:06.973Z,0.50
2023-04-12T18:30:34.063Z,0.50
2023-04-12T18:33:03.416Z,0.50
2023-04-12T18:35:30.903Z,0.60
2023-04-12T18:37:57.542Z,0.70
2023-04-12T18:40:24.199Z,0.50
2023-04-12T18:42:51.154Z,0.60
2023-04-12T18:45:18.465Z,0.60
2023-04-12T18:47:45.263Z,0.60
2023-04-12T18:50:12.336Z,0.60
2023-04-12T18:52:38.999Z,0.50
2023-04-12T18:55:06.948Z,0.50
2023-04-12T18:57:33.574Z,0.70
2023-04-12T19:00:00.325Z,0.50
2023-04-12T19:02:28.285Z,0.57
2023-04-12T19:04:55.485Z,0.57
2023-04-12T19:07:22.253Z,0.60
2023-04-12T19:09:49.085Z,0.60
2023-04-12T19:12:16.010Z,0.50
2023-04-12T19:14:42.677Z,0.50
2023-04-12T19:17:09.465Z,0.60
2023-04-12T19:19:36.146Z,0.50
2023-04-12T19:22:02.859Z,0.43
2023-04-12T19:24:29.559Z,0.57
2023-04-12T19:26:56.332Z,0.40
2023-04-12T19:29:24.224Z,0.60
2023-04-12T19:31:53.584Z,0.53
2023-04-12T19:34:20.747Z,0.70
2023-04-12T19:36:47.982Z,0.60
2023-04-12T19:39:42.700Z,0.40
2023-04-12T19:42:26.893Z,0.60
2023-04-12T19:44:58.062Z,0.40
2023-04-12T19:47:25.822Z,0.60
2023-04-12T19:49:52.858Z,0.60
2023-04-12T19:52:21.810Z,0.50
2023-04-12T19:54:48.705Z,0.53
2023-04-12T19:57:15.359Z,0.50
2023-04-12T19:59:42.540Z,0.60
2023-04-12T20:02:09.492Z,0.63
2023-04-12T20:04:36.707Z,0.50
2023-04-12T20:07:04.748Z,0.50
2023-04-12T20:09:31.582Z,0.50
2023-04-12T20:11:58.304Z,0.60
2023-04-12T20:14:26.925Z,0.40
2023-04-12T20:16:56.693Z,0.50
2023-04-12T20:19:23.378Z,0.70
2023-04-12T20:21:50.011Z,0.40
2023-04-12T20:24:16.903Z,0.60
2023-04-12T20:26:46.510Z,0.40
2023-04-12T20:29:13.874Z,0.40
2023-04-12T20:31:40.508Z,0.50
2023-04-12T20:34:07.154Z,0.40
2023-04-12T20:36:33.767Z,0.60
2023-04-12T20:39:01.635Z,0.50
2023-04-12T20:41:28.606Z,0.60
2023-04-12T20:43:55.330Z,0.60
2023-04-12T20:46:25.721Z,0.40
2023-04-12T20:48:56.430Z,0.50
2023-04-12T20:51:23.691Z,0.43
2023-04-12T20:53:51.538Z,0.50
2023-04-12T20:56:18.855Z,0.40
2023-04-12T20:58:52.228Z,0.40
2023-04-12T21:01:19.629Z,0.30
2023-04-12T21:03:46.762Z,0.40
2023-04-12T21:06:13.600Z,0.50
2023-04-12T21:08:42.740Z,0.20
2023-04-12T21:11:10.504Z,0.30
2023-04-12T21:13:37.171Z,0.33
2023-04-12T21:16:04.191Z,0.10
2023-04-12T21:18:34.162Z,0.20
2023-04-12T21:21:01.273Z,0.20
2023-04-12T21:23:28.100Z,0.30
2023-04-12T21:25:54.753Z,0.30
2023-04-12T21:28:22.878Z,0.30
2023-04-12T21:30:55.226Z,0.20
2023-04-12T21:33:30.574Z,0.30
2023-04-12T21:36:01.802Z,0.30
2023-04-12T21:38:30.527Z,0.30
2023-04-12T21:41:11.247Z,0.40
2023-04-12T21:43:41.466Z,0.30
2023-04-12T21:46:08.956Z,0.23
2023-04-12T21:48:36.539Z,0.40
2023-04-12T21:51:03.932Z,0.37
2023-04-12T21:53:30.708Z,0.50
2023-04-12T21:55:57.361Z,0.53
2023-04-12T21:58:24.025Z,0.60
2023-04-12T22:00:50.771Z,0.50
2023-04-12T22:03:18.493Z,0.80
2023-04-12T22:05:51.146Z,0.40
2023-04-12T22:08:24.038Z,0.50
2023-04-12T22:10:51.763Z,0.30
2023-04-12T22:13:18.479Z,0.43
2023-04-12T22:15:45.173Z,0.40
2023-04-12T22:18:13.078Z,0.20
2023-04-12T22:20:41.232Z,0.20
2023-04-12T22:23:07.903Z,0.30
2023-04-12T22:25:35.232Z,0.40
2023-04-12T22:28:02.370Z,0.30
2023-04-12T22:30:30.544Z,0.30
2023-04-12T22:32:58.754Z,0.20
2023-04-12T22:35:25.705Z,0.40
2023-04-12T22:37:52.366Z,0.50
2023-04-12T22:40:19.431Z,0.50
2023-04-12T22:42:47.367Z,0.50
2023-04-12T22:45:17.539Z,0.57
2023-04-12T22:47:45.616Z,0.60
2023-04-12T22:50:12.904Z,0.17
2023-04-12T22:52:40.409Z,0.30
2023-04-12T22:55:08.582Z,0.30
2023-04-12T22:57:36.426Z,0.30
2023-04-12T23:00:07.507Z,0.40
2023-04-12T23:02:34.823Z,0.40
2023-04-12T23:05:02.696Z,0.40
2023-04-12T23:07:30.164Z,0.33
2023-04-12T23:09:57.520Z,0.30
2023-04-12T23:12:24.705Z,0.40
2023-04-12T23:14:55.348Z,0.30
2023-04-12T23:17:22.205Z,0.30
2023-04-12T23:19:50.262Z,0.40
2023-04-12T23:22:44.428Z,0.20
2023-04-12T23:25:23.445Z,0.40
2023-04-12T23:27:50.524Z,0.20
2023-04-12T23:30:17.983Z,0.37
2023-04-12T23:32:45.189Z,0.30
2023-04-12T23:35:12.223Z,0.20
2023-04-12T23:37:41.018Z,0.30
2023-04-12T23:40:13.936Z,0.30
2023-04-12T23:42:41.921Z,0.30
2023-04-12T23:45:10.631Z,0.30
2023-04-12T23:47:37.914Z,0.20
2023-04-12T23:50:06.425Z,0.50
2023-04-12T23:52:33.213Z,0.30
2023-04-12T23:54:59.997Z,0.20
2023-04-12T23:57:27.139Z,0.57
2023-04-12T23:59:56.298Z,0.30
